sensor_id;sensor_type;location;lat;lon;timestamp;temperature;humidity
14517;DHT22;7344;50.864;4.362;2022-12-11T00:00:18;2.90;99.90
14517;DHT22;7344;50.864;4.362;2022-12-11T00:02:43;3.00;99.90
14517;DHT22;7344;50.864;4.362;2022-12-11T00:05:09;3.00;99.90
14517;DHT22;7344;50.864;4.362;2022-12-11T00:07:35;2.90;99.90
14517;DHT22;7344;50.864;4.362;2022-12-11T00:10:00;3.00;99.90
14517;DHT22;7344;50.864;4.362;2022-12-11T00:12:26;2.90;99.90
14517;DHT22;7344;50.864;4.362;2022-12-11T00:14:51;2.80;99.90
14517;DHT22;7344;50.864;4.362;2022-12-11T00:17:17;2.70;99.90
14517;DHT22;7344;50.864;4.362;2022-12-11T00:19:42;2.90;99.90
14517;DHT22;7344;50.864;4.362;2022-12-11T00:22:08;2.80;99.90
14517;DHT22;7344;50.864;4.362;2022-12-11T00:24:34;2.80;99.90
14517;DHT22;7344;50.864;4.362;2022-12-11T00:27:00;2.80;99.90
14517;DHT22;7344;50.864;4.362;2022-12-11T00:29:25;2.80;99.90
14517;DHT22;7344;50.864;4.362;2022-12-11T00:31:51;2.80;99.90
14517;DHT22;7344;50.864;4.362;2022-12-11T00:34:16;2.90;99.90
14517;DHT22;7344;50.864;4.362;2022-12-11T00:36:42;2.90;99.90
14517;DHT22;7344;50.864;4.362;2022-12-11T00:39:08;3.00;99.90
14517;DHT22;7344;50.864;4.362;2022-12-11T00:41:33;3.00;99.90
14517;DHT22;7344;50.864;4.362;2022-12-11T00:43:59;3.10;99.90
14517;DHT22;7344;50.864;4.362;2022-12-11T00:46:25;3.10;99.90
14517;DHT22;7344;50.864;4.362;2022-12-11T00:48:50;3.00;99.90
14517;DHT22;7344;50.864;4.362;2022-12-11T00:51:16;3.00;99.90
14517;DHT22;7344;50.864;4.362;2022-12-11T00:53:42;3.00;99.90
14517;DHT22;7344;50.864;4.362;2022-12-11T00:56:14;3.00;99.90
14517;DHT22;7344;50.864;4.362;2022-12-11T00:58:39;3.00;99.90
14517;DHT22;7344;50.864;4.362;2022-12-11T01:01:10;3.00;99.90
14517;DHT22;7344;50.864;4.362;2022-12-11T01:03:36;3.00;99.90
14517;DHT22;7344;50.864;4.362;2022-12-11T01:06:03;3.10;99.90
14517;DHT22;7344;50.864;4.362;2022-12-11T01:08:28;3.10;99.90
14517;DHT22;7344;50.864;4.362;2022-12-11T01:11:05;3.00;99.90
14517;DHT22;7344;50.864;4.362;2022-12-11T01:13:31;3.00;99.90
14517;DHT22;7344;50.864;4.362;2022-12-11T01:15:57;3.00;99.90
14517;DHT22;7344;50.864;4.362;2022-12-11T01:18:23;3.00;99.90
14517;DHT22;7344;50.864;4.362;2022-12-11T01:20:48;3.00;99.90
14517;DHT22;7344;50.864;4.362;2022-12-11T01:23:14;2.90;99.90
14517;DHT22;7344;50.864;4.362;2022-12-11T01:25:41;2.90;99.90
14517;DHT22;7344;50.864;4.362;2022-12-11T01:28:08;2.90;99.90
14517;DHT22;7344;50.864;4.362;2022-12-11T01:30:34;3.00;99.90
14517;DHT22;7344;50.864;4.362;2022-12-11T01:33:00;3.10;99.90
14517;DHT22;7344;50.864;4.362;2022-12-11T01:35:26;3.10;99.90
14517;DHT22;7344;50.864;4.362;2022-12-11T01:37:52;3.20;99.90
14517;DHT22;7344;50.864;4.362;2022-12-11T01:40:19;3.20;99.90
14517;DHT22;7344;50.864;4.362;2022-12-11T01:42:45;3.20;99.90
14517;DHT22;7344;50.864;4.362;2022-12-11T01:45:26;3.10;99.90
14517;DHT22;7344;50.864;4.362;2022-12-11T01:48:04;3.00;99.90
14517;DHT22;7344;50.864;4.362;2022-12-11T01:50:34;3.00;99.90
14517;DHT22;7344;50.864;4.362;2022-12-11T01:53:02;3.00;99.90
14517;DHT22;7344;50.864;4.362;2022-12-11T01:55:28;3.10;99.90
14517;DHT22;7344;50.864;4.362;2022-12-11T01:57:54;3.10;99.90
14517;DHT22;7344;50.864;4.362;2022-12-11T02:00:21;3.10;99.90
14517;DHT22;7344;50.864;4.362;2022-12-11T02:02:46;3.10;99.90
14517;DHT22;7344;50.864;4.362;2022-12-11T02:05:12;3.10;99.90
14517;DHT22;7344;50.864;4.362;2022-12-11T02:07:58;3.10;99.90
14517;DHT22;7344;50.864;4.362;2022-12-11T02:13:28;3.10;99.90
14517;DHT22;7344;50.864;4.362;2022-12-11T02:16:04;3.10;99.90
14517;DHT22;7344;50.864;4.362;2022-12-11T02:18:38;3.10;99.90
14517;DHT22;7344;50.864;4.362;2022-12-11T02:21:12;3.20;99.90
14517;DHT22;7344;50.864;4.362;2022-12-11T02:26:59;3.30;99.90
14517;DHT22;7344;50.864;4.362;2022-12-11T02:30:02;3.30;99.90
14517;DHT22;7344;50.864;4.362;2022-12-11T02:32:39;3.20;99.90
14517;DHT22;7344;50.864;4.362;2022-12-11T02:35:18;3.30;99.90
14517;DHT22;7344;50.864;4.362;2022-12-11T02:37:47;3.30;99.90
14517;DHT22;7344;50.864;4.362;2022-12-11T02:40:19;3.30;99.90
14517;DHT22;7344;50.864;4.362;2022-12-11T02:42:47;3.20;99.90
14517;DHT22;7344;50.864;4.362;2022-12-11T02:45:15;3.20;99.90
14517;DHT22;7344;50.864;4.362;2022-12-11T02:47:43;3.30;99.90
14517;DHT22;7344;50.864;4.362;2022-12-11T02:50:14;3.30;99.90
14517;DHT22;7344;50.864;4.362;2022-12-11T02:52:41;3.20;99.90
14517;DHT22;7344;50.864;4.362;2022-12-11T02:55:09;3.30;99.90
14517;DHT22;7344;50.864;4.362;2022-12-11T02:58:12;3.20;99.90
14517;DHT22;7344;50.864;4.362;2022-12-11T03:00:39;3.30;99.90
14517;DHT22;7344;50.864;4.362;2022-12-11T03:03:04;3.20;99.90
14517;DHT22;7344;50.864;4.362;2022-12-11T03:05:30;3.10;99.90
14517;DHT22;7344;50.864;4.362;2022-12-11T03:07:56;3.10;99.90
14517;DHT22;7344;50.864;4.362;2022-12-11T03:10:22;3.10;99.90
14517;DHT22;7344;50.864;4.362;2022-12-11T03:12:51;3.00;99.90
14517;DHT22;7344;50.864;4.362;2022-12-11T03:15:20;3.00;99.90
14517;DHT22;7344;50.864;4.362;2022-12-11T03:23:35;3.00;99.90
14517;DHT22;7344;50.864;4.362;2022-12-11T03:26:09;3.00;99.90
14517;DHT22;7344;50.864;4.362;2022-12-11T03:28:48;3.00;99.90
14517;DHT22;7344;50.864;4.362;2022-12-11T03:31:33;2.90;99.90
14517;DHT22;7344;50.864;4.362;2022-12-11T03:34:09;2.90;99.90
14517;DHT22;7344;50.864;4.362;2022-12-11T03:36:38;2.90;99.90
14517;DHT22;7344;50.864;4.362;2022-12-11T03:39:12;2.90;99.90
14517;DHT22;7344;50.864;4.362;2022-12-11T03:41:41;3.00;99.90
14517;DHT22;7344;50.864;4.362;2022-12-11T03:44:08;3.00;99.90
14517;DHT22;7344;50.864;4.362;2022-12-11T03:46:37;2.90;99.90
14517;DHT22;7344;50.864;4.362;2022-12-11T03:49:15;3.00;99.90
14517;DHT22;7344;50.864;4.362;2022-12-11T03:51:43;3.00;99.90
14517;DHT22;7344;50.864;4.362;2022-12-11T03:54:11;3.10;99.90
14517;DHT22;7344;50.864;4.362;2022-12-11T03:56:37;3.00;99.90
14517;DHT22;7344;50.864;4.362;2022-12-11T03:59:05;3.10;99.90
14517;DHT22;7344;50.864;4.362;2022-12-11T04:01:30;3.10;99.90
14517;DHT22;7344;50.864;4.362;2022-12-11T04:03:56;3.10;99.90
14517;DHT22;7344;50.864;4.362;2022-12-11T04:06:22;3.00;99.90
14517;DHT22;7344;50.864;4.362;2022-12-11T04:08:47;3.00;99.90
14517;DHT22;7344;50.864;4.362;2022-12-11T04:11:13;3.10;99.90
14517;DHT22;7344;50.864;4.362;2022-12-11T04:13:57;3.00;99.90
14517;DHT22;7344;50.864;4.362;2022-12-11T04:16:41;3.00;99.90
14517;DHT22;7344;50.864;4.362;2022-12-11T04:19:08;3.00;99.90
14517;DHT22;7344;50.864;4.362;2022-12-11T04:21:57;3.00;99.90
14517;DHT22;7344;50.864;4.362;2022-12-11T04:24:41;3.10;99.90
14517;DHT22;7344;50.864;4.362;2022-12-11T04:27:07;3.10;99.90
14517;DHT22;7344;50.864;4.362;2022-12-11T04:29:33;3.00;99.90
14517;DHT22;7344;50.864;4.362;2022-12-11T04:31:58;3.00;99.90
14517;DHT22;7344;50.864;4.362;2022-12-11T04:34:24;3.00;99.90
14517;DHT22;7344;50.864;4.362;2022-12-11T04:36:49;3.10;99.90
14517;DHT22;7344;50.864;4.362;2022-12-11T04:39:15;2.90;99.90
14517;DHT22;7344;50.864;4.362;2022-12-11T04:41:41;2.90;99.90
14517;DHT22;7344;50.864;4.362;2022-12-11T04:44:07;3.00;99.90
14517;DHT22;7344;50.864;4.362;2022-12-11T04:46:33;2.90;99.90
14517;DHT22;7344;50.864;4.362;2022-12-11T04:48:59;3.00;99.90
14517;DHT22;7344;50.864;4.362;2022-12-11T04:51:26;3.00;99.90
14517;DHT22;7344;50.864;4.362;2022-12-11T04:53:52;3.10;99.90
14517;DHT22;7344;50.864;4.362;2022-12-11T04:56:19;3.10;99.90
14517;DHT22;7344;50.864;4.362;2022-12-11T04:58:46;3.10;99.90
14517;DHT22;7344;50.864;4.362;2022-12-11T05:01:18;3.10;99.90
14517;DHT22;7344;50.864;4.362;2022-12-11T05:03:44;3.00;99.90
14517;DHT22;7344;50.864;4.362;2022-12-11T05:06:10;3.00;99.90
14517;DHT22;7344;50.864;4.362;2022-12-11T05:08:38;2.90;99.90
14517;DHT22;7344;50.864;4.362;2022-12-11T05:11:07;2.90;99.90
14517;DHT22;7344;50.864;4.362;2022-12-11T05:13:34;3.00;99.90
14517;DHT22;7344;50.864;4.362;2022-12-11T05:16:02;3.00;99.90
14517;DHT22;7344;50.864;4.362;2022-12-11T05:18:28;3.10;99.90
14517;DHT22;7344;50.864;4.362;2022-12-11T05:20:59;3.00;99.90
14517;DHT22;7344;50.864;4.362;2022-12-11T05:23:26;3.00;99.90
14517;DHT22;7344;50.864;4.362;2022-12-11T05:25:57;3.00;99.90
14517;DHT22;7344;50.864;4.362;2022-12-11T05:28:24;3.00;99.90
14517;DHT22;7344;50.864;4.362;2022-12-11T05:31:00;3.10;99.90
14517;DHT22;7344;50.864;4.362;2022-12-11T05:33:27;3.10;99.90
14517;DHT22;7344;50.864;4.362;2022-12-11T05:35:52;3.00;99.90
14517;DHT22;7344;50.864;4.362;2022-12-11T05:38:18;3.00;99.90
14517;DHT22;7344;50.864;4.362;2022-12-11T05:40:44;3.00;99.90
14517;DHT22;7344;50.864;4.362;2022-12-11T05:43:10;3.00;99.90
14517;DHT22;7344;50.864;4.362;2022-12-11T05:45:36;3.00;99.90
14517;DHT22;7344;50.864;4.362;2022-12-11T05:48:01;3.00;99.90
14517;DHT22;7344;50.864;4.362;2022-12-11T05:50:27;3.00;99.90
14517;DHT22;7344;50.864;4.362;2022-12-11T05:52:53;3.00;99.90
14517;DHT22;7344;50.864;4.362;2022-12-11T05:55:18;2.90;99.90
14517;DHT22;7344;50.864;4.362;2022-12-11T05:57:44;2.90;99.90
14517;DHT22;7344;50.864;4.362;2022-12-11T06:00:11;2.80;99.90
14517;DHT22;7344;50.864;4.362;2022-12-11T06:02:37;2.80;99.90
14517;DHT22;7344;50.864;4.362;2022-12-11T06:05:03;2.70;99.90
14517;DHT22;7344;50.864;4.362;2022-12-11T06:07:28;2.80;99.90
14517;DHT22;7344;50.864;4.362;2022-12-11T06:09:54;2.80;99.90
14517;DHT22;7344;50.864;4.362;2022-12-11T06:12:20;2.80;99.90
14517;DHT22;7344;50.864;4.362;2022-12-11T06:14:45;2.80;99.90
14517;DHT22;7344;50.864;4.362;2022-12-11T06:17:11;2.80;99.90
14517;DHT22;7344;50.864;4.362;2022-12-11T06:19:36;2.80;99.90
14517;DHT22;7344;50.864;4.362;2022-12-11T06:22:02;2.70;99.90
14517;DHT22;7344;50.864;4.362;2022-12-11T06:24:28;2.70;99.90
14517;DHT22;7344;50.864;4.362;2022-12-11T06:26:53;2.60;99.90
14517;DHT22;7344;50.864;4.362;2022-12-11T06:29:19;2.60;99.90
14517;DHT22;7344;50.864;4.362;2022-12-11T06:31:44;2.70;99.90
14517;DHT22;7344;50.864;4.362;2022-12-11T06:34:11;2.60;99.90
14517;DHT22;7344;50.864;4.362;2022-12-11T06:36:38;2.50;99.90
14517;DHT22;7344;50.864;4.362;2022-12-11T06:39:04;2.50;99.90
14517;DHT22;7344;50.864;4.362;2022-12-11T06:41:29;2.50;99.90
14517;DHT22;7344;50.864;4.362;2022-12-11T06:43:55;2.50;99.90
14517;DHT22;7344;50.864;4.362;2022-12-11T06:46:20;2.50;99.90
14517;DHT22;7344;50.864;4.362;2022-12-11T06:48:47;2.60;99.90
14517;DHT22;7344;50.864;4.362;2022-12-11T06:51:15;2.60;99.90
14517;DHT22;7344;50.864;4.362;2022-12-11T06:53:41;2.60;99.90
14517;DHT22;7344;50.864;4.362;2022-12-11T06:56:12;2.50;99.90
14517;DHT22;7344;50.864;4.362;2022-12-11T06:58:39;2.50;99.90
14517;DHT22;7344;50.864;4.362;2022-12-11T07:01:14;2.60;99.90
14517;DHT22;7344;50.864;4.362;2022-12-11T07:03:39;2.70;99.90
14517;DHT22;7344;50.864;4.362;2022-12-11T07:06:05;2.70;99.90
14517;DHT22;7344;50.864;4.362;2022-12-11T07:08:31;2.80;99.90
14517;DHT22;7344;50.864;4.362;2022-12-11T07:11:04;2.80;99.90
14517;DHT22;7344;50.864;4.362;2022-12-11T07:13:30;2.80;99.90
14517;DHT22;7344;50.864;4.362;2022-12-11T07:15:57;2.70;99.90
14517;DHT22;7344;50.864;4.362;2022-12-11T07:18:23;2.60;99.90
14517;DHT22;7344;50.864;4.362;2022-12-11T07:20:49;2.70;99.90
14517;DHT22;7344;50.864;4.362;2022-12-11T07:23:14;2.70;99.90
14517;DHT22;7344;50.864;4.362;2022-12-11T07:25:40;2.70;99.90
14517;DHT22;7344;50.864;4.362;2022-12-11T07:28:06;2.70;99.90
14517;DHT22;7344;50.864;4.362;2022-12-11T07:30:31;2.70;99.90
14517;DHT22;7344;50.864;4.362;2022-12-11T07:32:57;2.80;99.90
14517;DHT22;7344;50.864;4.362;2022-12-11T07:35:23;2.70;99.90
14517;DHT22;7344;50.864;4.362;2022-12-11T07:37:48;2.80;99.90
14517;DHT22;7344;50.864;4.362;2022-12-11T07:40:14;2.70;99.90
14517;DHT22;7344;50.864;4.362;2022-12-11T07:42:39;2.80;99.90
14517;DHT22;7344;50.864;4.362;2022-12-11T07:45:05;2.80;99.90
14517;DHT22;7344;50.864;4.362;2022-12-11T07:47:32;2.80;99.90
14517;DHT22;7344;50.864;4.362;2022-12-11T07:49:58;2.70;99.90
14517;DHT22;7344;50.864;4.362;2022-12-11T07:52:23;2.70;99.90
14517;DHT22;7344;50.864;4.362;2022-12-11T07:54:49;2.60;99.90
14517;DHT22;7344;50.864;4.362;2022-12-11T07:57:15;2.70;99.90
14517;DHT22;7344;50.864;4.362;2022-12-11T07:59:40;2.70;99.90
14517;DHT22;7344;50.864;4.362;2022-12-11T08:02:09;2.70;99.90
14517;DHT22;7344;50.864;4.362;2022-12-11T08:04:34;2.80;99.90
14517;DHT22;7344;50.864;4.362;2022-12-11T08:07:00;2.70;99.90
14517;DHT22;7344;50.864;4.362;2022-12-11T08:09:26;2.80;99.90
14517;DHT22;7344;50.864;4.362;2022-12-11T08:11:51;2.90;99.90
14517;DHT22;7344;50.864;4.362;2022-12-11T08:14:17;2.90;99.90
14517;DHT22;7344;50.864;4.362;2022-12-11T08:16:43;2.90;99.90
14517;DHT22;7344;50.864;4.362;2022-12-11T08:19:11;2.80;99.90
14517;DHT22;7344;50.864;4.362;2022-12-11T08:21:37;2.80;99.90
14517;DHT22;7344;50.864;4.362;2022-12-11T08:24:03;2.80;99.90
14517;DHT22;7344;50.864;4.362;2022-12-11T08:26:29;2.90;99.90
14517;DHT22;7344;50.864;4.362;2022-12-11T08:28:56;2.90;99.90
14517;DHT22;7344;50.864;4.362;2022-12-11T08:31:23;2.70;99.90
14517;DHT22;7344;50.864;4.362;2022-12-11T08:33:49;2.70;99.90
14517;DHT22;7344;50.864;4.362;2022-12-11T08:36:17;2.70;99.90
14517;DHT22;7344;50.864;4.362;2022-12-11T08:38:43;2.70;99.90
14517;DHT22;7344;50.864;4.362;2022-12-11T08:41:13;2.70;99.90
14517;DHT22;7344;50.864;4.362;2022-12-11T08:43:40;2.80;99.90
14517;DHT22;7344;50.864;4.362;2022-12-11T08:46:06;2.50;99.90
14517;DHT22;7344;50.864;4.362;2022-12-11T08:48:37;2.60;99.90
14517;DHT22;7344;50.864;4.362;2022-12-11T08:51:04;2.70;99.90
14517;DHT22;7344;50.864;4.362;2022-12-11T08:53:31;2.70;99.90
14517;DHT22;7344;50.864;4.362;2022-12-11T08:56:08;2.80;99.90
14517;DHT22;7344;50.864;4.362;2022-12-11T08:58:35;3.00;99.90
14517;DHT22;7344;50.864;4.362;2022-12-11T09:01:09;2.90;99.90
14517;DHT22;7344;50.864;4.362;2022-12-11T09:03:36;2.70;99.90
14517;DHT22;7344;50.864;4.362;2022-12-11T09:06:06;2.70;99.90
14517;DHT22;7344;50.864;4.362;2022-12-11T09:08:32;2.70;99.90
14517;DHT22;7344;50.864;4.362;2022-12-11T09:11:29;2.40;99.90
14517;DHT22;7344;50.864;4.362;2022-12-11T09:13:55;2.40;99.90
14517;DHT22;7344;50.864;4.362;2022-12-11T09:16:23;2.50;99.90
14517;DHT22;7344;50.864;4.362;2022-12-11T09:18:50;2.50;99.90
14517;DHT22;7344;50.864;4.362;2022-12-11T09:21:21;2.50;99.90
14517;DHT22;7344;50.864;4.362;2022-12-11T09:23:47;2.60;99.90
14517;DHT22;7344;50.864;4.362;2022-12-11T09:26:15;2.70;99.90
14517;DHT22;7344;50.864;4.362;2022-12-11T09:28:42;2.70;99.90
14517;DHT22;7344;50.864;4.362;2022-12-11T09:31:31;2.80;99.90
14517;DHT22;7344;50.864;4.362;2022-12-11T09:33:59;2.90;99.90
14517;DHT22;7344;50.864;4.362;2022-12-11T09:36:26;2.90;99.90
14517;DHT22;7344;50.864;4.362;2022-12-11T09:38:52;3.00;99.90
14517;DHT22;7344;50.864;4.362;2022-12-11T09:46:49;3.10;99.90
14517;DHT22;7344;50.864;4.362;2022-12-11T09:49:41;2.90;99.90
14517;DHT22;7344;50.864;4.362;2022-12-11T09:52:15;2.80;99.90
14517;DHT22;7344;50.864;4.362;2022-12-11T09:54:58;2.80;99.90
14517;DHT22;7344;50.864;4.362;2022-12-11T10:00:13;2.70;99.90
14517;DHT22;7344;50.864;4.362;2022-12-11T10:05:27;2.70;99.90
14517;DHT22;7344;50.864;4.362;2022-12-11T10:08:20;2.70;99.90
14517;DHT22;7344;50.864;4.362;2022-12-11T10:19:02;2.80;99.90
14517;DHT22;7344;50.864;4.362;2022-12-11T10:21:35;2.80;99.90
14517;DHT22;7344;50.864;4.362;2022-12-11T10:24:04;2.80;99.90
14517;DHT22;7344;50.864;4.362;2022-12-11T10:26:38;2.90;99.90
14517;DHT22;7344;50.864;4.362;2022-12-11T10:29:05;3.00;99.90
14517;DHT22;7344;50.864;4.362;2022-12-11T10:31:55;2.90;99.90
14517;DHT22;7344;50.864;4.362;2022-12-11T10:34:33;2.90;99.90
14517;DHT22;7344;50.864;4.362;2022-12-11T10:36:59;2.90;99.90
14517;DHT22;7344;50.864;4.362;2022-12-11T10:39:25;3.00;99.90
14517;DHT22;7344;50.864;4.362;2022-12-11T10:41:53;3.10;99.90
14517;DHT22;7344;50.864;4.362;2022-12-11T10:44:26;3.20;99.90
14517;DHT22;7344;50.864;4.362;2022-12-11T10:47:12;3.40;99.90
14517;DHT22;7344;50.864;4.362;2022-12-11T10:49:43;3.50;99.90
14517;DHT22;7344;50.864;4.362;2022-12-11T10:52:37;3.60;99.90
14517;DHT22;7344;50.864;4.362;2022-12-11T10:57:42;3.40;99.90
14517;DHT22;7344;50.864;4.362;2022-12-11T11:02:54;3.60;99.90
14517;DHT22;7344;50.864;4.362;2022-12-11T11:11:19;4.70;99.90
14517;DHT22;7344;50.864;4.362;2022-12-11T11:13:45;4.60;99.90
14517;DHT22;7344;50.864;4.362;2022-12-11T11:16:12;4.90;99.90
14517;DHT22;7344;50.864;4.362;2022-12-11T11:18:40;5.60;99.90
14517;DHT22;7344;50.864;4.362;2022-12-11T11:21:15;6.50;99.90
14517;DHT22;7344;50.864;4.362;2022-12-11T11:23:43;7.00;99.90
14517;DHT22;7344;50.864;4.362;2022-12-11T11:26:08;7.10;99.90
14517;DHT22;7344;50.864;4.362;2022-12-11T11:28:48;7.60;99.90
14517;DHT22;7344;50.864;4.362;2022-12-11T11:31:15;7.70;99.90
14517;DHT22;7344;50.864;4.362;2022-12-11T11:33:54;8.10;99.90
14517;DHT22;7344;50.864;4.362;2022-12-11T11:36:26;8.50;99.90
14517;DHT22;7344;50.864;4.362;2022-12-11T11:41:39;8.00;99.30
14517;DHT22;7344;50.864;4.362;2022-12-11T11:44:09;7.50;99.90
14517;DHT22;7344;50.864;4.362;2022-12-11T11:46:43;7.10;99.90
14517;DHT22;7344;50.864;4.362;2022-12-11T11:49:22;6.80;99.90
14517;DHT22;7344;50.864;4.362;2022-12-11T11:51:56;6.40;99.90
14517;DHT22;7344;50.864;4.362;2022-12-11T11:54:32;6.10;99.90
14517;DHT22;7344;50.864;4.362;2022-12-11T11:57:04;5.90;99.90
14517;DHT22;7344;50.864;4.362;2022-12-11T11:59:34;5.70;99.90
14517;DHT22;7344;50.864;4.362;2022-12-11T12:02:00;5.40;99.90
14517;DHT22;7344;50.864;4.362;2022-12-11T12:04:34;5.40;99.90
14517;DHT22;7344;50.864;4.362;2022-12-11T12:07:07;5.30;99.90
14517;DHT22;7344;50.864;4.362;2022-12-11T12:25:40;4.70;99.90
14517;DHT22;7344;50.864;4.362;2022-12-11T12:44:23;3.90;99.90
14517;DHT22;7344;50.864;4.362;2022-12-11T12:49:43;3.90;99.90
14517;DHT22;7344;50.864;4.362;2022-12-11T12:52:21;4.00;99.90
14517;DHT22;7344;50.864;4.362;2022-12-11T12:54:53;3.80;99.90
14517;DHT22;7344;50.864;4.362;2022-12-11T12:57:43;3.80;99.90
14517;DHT22;7344;50.864;4.362;2022-12-11T13:00:10;3.80;99.90
14517;DHT22;7344;50.864;4.362;2022-12-11T13:02:49;3.70;99.90
14517;DHT22;7344;50.864;4.362;2022-12-11T13:05:24;3.80;99.90
14517;DHT22;7344;50.864;4.362;2022-12-11T13:07:59;3.70;99.90
14517;DHT22;7344;50.864;4.362;2022-12-11T13:10:34;3.80;99.90
14517;DHT22;7344;50.864;4.362;2022-12-11T13:13:03;3.70;99.90
14517;DHT22;7344;50.864;4.362;2022-12-11T13:15:30;3.70;99.90
14517;DHT22;7344;50.864;4.362;2022-12-11T13:17:57;3.60;99.90
14517;DHT22;7344;50.864;4.362;2022-12-11T13:20:25;3.70;99.90
14517;DHT22;7344;50.864;4.362;2022-12-11T13:23:17;3.50;99.90
14517;DHT22;7344;50.864;4.362;2022-12-11T13:25:54;3.60;99.90
14517;DHT22;7344;50.864;4.362;2022-12-11T13:34:05;3.60;99.90
14517;DHT22;7344;50.864;4.362;2022-12-11T13:36:35;3.60;99.90
14517;DHT22;7344;50.864;4.362;2022-12-11T13:39:16;3.50;99.90
14517;DHT22;7344;50.864;4.362;2022-12-11T13:41:46;3.50;99.90
14517;DHT22;7344;50.864;4.362;2022-12-11T13:44:22;3.40;99.90
14517;DHT22;7344;50.864;4.362;2022-12-11T13:46:49;3.50;99.90
14517;DHT22;7344;50.864;4.362;2022-12-11T13:49:24;3.30;99.90
14517;DHT22;7344;50.864;4.362;2022-12-11T13:51:58;3.30;99.90
14517;DHT22;7344;50.864;4.362;2022-12-11T13:54:24;3.30;99.90
14517;DHT22;7344;50.864;4.362;2022-12-11T13:57:19;3.20;99.90
14517;DHT22;7344;50.864;4.362;2022-12-11T13:59:48;3.30;99.90
14517;DHT22;7344;50.864;4.362;2022-12-11T14:04:48;3.10;99.90
14517;DHT22;7344;50.864;4.362;2022-12-11T14:07:19;3.10;99.90
14517;DHT22;7344;50.864;4.362;2022-12-11T14:09:47;3.00;99.90
14517;DHT22;7344;50.864;4.362;2022-12-11T14:12:16;3.10;99.90
14517;DHT22;7344;50.864;4.362;2022-12-11T14:14:48;3.20;99.90
14517;DHT22;7344;50.864;4.362;2022-12-11T14:17:22;3.30;99.90
14517;DHT22;7344;50.864;4.362;2022-12-11T14:19:49;3.20;99.90
14517;DHT22;7344;50.864;4.362;2022-12-11T14:22:24;3.20;99.90
14517;DHT22;7344;50.864;4.362;2022-12-11T14:24:56;3.30;99.90
14517;DHT22;7344;50.864;4.362;2022-12-11T14:27:23;3.50;99.90
14517;DHT22;7344;50.864;4.362;2022-12-11T14:29:49;3.70;99.90
14517;DHT22;7344;50.864;4.362;2022-12-11T14:32:35;3.50;99.90
14517;DHT22;7344;50.864;4.362;2022-12-11T14:35:05;3.50;99.90
14517;DHT22;7344;50.864;4.362;2022-12-11T14:37:35;3.60;99.90
14517;DHT22;7344;50.864;4.362;2022-12-11T14:40:05;3.60;99.90
14517;DHT22;7344;50.864;4.362;2022-12-11T14:42:45;3.60;99.90
14517;DHT22;7344;50.864;4.362;2022-12-11T14:45:19;3.60;99.90
14517;DHT22;7344;50.864;4.362;2022-12-11T14:47:46;3.50;99.90
14517;DHT22;7344;50.864;4.362;2022-12-11T14:50:25;3.40;99.90
14517;DHT22;7344;50.864;4.362;2022-12-11T14:52:54;3.30;99.90
14517;DHT22;7344;50.864;4.362;2022-12-11T14:55:24;3.30;99.90
14517;DHT22;7344;50.864;4.362;2022-12-11T14:57:57;3.30;99.90
14517;DHT22;7344;50.864;4.362;2022-12-11T15:00:33;3.20;99.90
14517;DHT22;7344;50.864;4.362;2022-12-11T15:05:48;3.10;99.90
14517;DHT22;7344;50.864;4.362;2022-12-11T15:08:23;3.20;99.90
14517;DHT22;7344;50.864;4.362;2022-12-11T15:11:14;3.20;99.90
14517;DHT22;7344;50.864;4.362;2022-12-11T15:13:53;3.10;99.90
14517;DHT22;7344;50.864;4.362;2022-12-11T15:16:21;3.20;99.90
14517;DHT22;7344;50.864;4.362;2022-12-11T15:18:49;3.10;99.90
14517;DHT22;7344;50.864;4.362;2022-12-11T15:21:16;3.20;99.90
14517;DHT22;7344;50.864;4.362;2022-12-11T15:26:11;3.40;99.90
14517;DHT22;7344;50.864;4.362;2022-12-11T15:28:37;3.50;99.90
14517;DHT22;7344;50.864;4.362;2022-12-11T15:31:26;3.50;99.90
14517;DHT22;7344;50.864;4.362;2022-12-11T15:33:53;3.50;99.90
14517;DHT22;7344;50.864;4.362;2022-12-11T15:36:39;3.50;99.90
14517;DHT22;7344;50.864;4.362;2022-12-11T15:39:04;3.50;99.90
14517;DHT22;7344;50.864;4.362;2022-12-11T15:41:33;3.60;99.90
14517;DHT22;7344;50.864;4.362;2022-12-11T15:44:01;3.50;99.90
14517;DHT22;7344;50.864;4.362;2022-12-11T15:46:28;3.40;99.90
14517;DHT22;7344;50.864;4.362;2022-12-11T15:48:55;3.50;99.90
14517;DHT22;7344;50.864;4.362;2022-12-11T15:51:20;3.30;99.90
14517;DHT22;7344;50.864;4.362;2022-12-11T15:53:47;3.30;99.90
14517;DHT22;7344;50.864;4.362;2022-12-11T15:56:16;3.40;99.90
14517;DHT22;7344;50.864;4.362;2022-12-11T15:58:44;3.30;99.90
14517;DHT22;7344;50.864;4.362;2022-12-11T16:01:09;3.30;99.90
14517;DHT22;7344;50.864;4.362;2022-12-11T16:03:35;3.40;99.90
14517;DHT22;7344;50.864;4.362;2022-12-11T16:06:01;3.50;99.90
14517;DHT22;7344;50.864;4.362;2022-12-11T16:08:27;3.50;99.90
14517;DHT22;7344;50.864;4.362;2022-12-11T16:10:53;3.60;99.90
14517;DHT22;7344;50.864;4.362;2022-12-11T16:13:19;3.60;99.90
14517;DHT22;7344;50.864;4.362;2022-12-11T16:15:46;3.70;99.90
14517;DHT22;7344;50.864;4.362;2022-12-11T16:18:15;3.70;99.90
14517;DHT22;7344;50.864;4.362;2022-12-11T16:20:43;3.70;99.90
14517;DHT22;7344;50.864;4.362;2022-12-11T16:23:09;3.60;99.90
14517;DHT22;7344;50.864;4.362;2022-12-11T16:25:40;3.60;99.90
14517;DHT22;7344;50.864;4.362;2022-12-11T16:28:06;3.50;99.90
14517;DHT22;7344;50.864;4.362;2022-12-11T16:30:34;3.60;99.90
14517;DHT22;7344;50.864;4.362;2022-12-11T16:33:01;3.60;99.90
14517;DHT22;7344;50.864;4.362;2022-12-11T16:35:28;3.60;99.90
14517;DHT22;7344;50.864;4.362;2022-12-11T16:37:54;3.70;99.90
14517;DHT22;7344;50.864;4.362;2022-12-11T16:40:21;3.70;99.90
14517;DHT22;7344;50.864;4.362;2022-12-11T16:42:47;3.80;99.90
14517;DHT22;7344;50.864;4.362;2022-12-11T16:45:21;3.70;99.90
14517;DHT22;7344;50.864;4.362;2022-12-11T16:47:48;3.60;99.90
14517;DHT22;7344;50.864;4.362;2022-12-11T16:50:15;3.60;99.90
14517;DHT22;7344;50.864;4.362;2022-12-11T16:52:41;3.70;99.90
14517;DHT22;7344;50.864;4.362;2022-12-11T16:55:09;3.80;99.90
14517;DHT22;7344;50.864;4.362;2022-12-11T16:57:36;3.80;99.90
14517;DHT22;7344;50.864;4.362;2022-12-11T17:00:04;3.80;99.90
14517;DHT22;7344;50.864;4.362;2022-12-11T17:02:30;3.80;99.90
14517;DHT22;7344;50.864;4.362;2022-12-11T17:04:56;3.70;99.90
14517;DHT22;7344;50.864;4.362;2022-12-11T17:07:22;3.60;99.90
14517;DHT22;7344;50.864;4.362;2022-12-11T17:09:47;3.60;99.90
14517;DHT22;7344;50.864;4.362;2022-12-11T17:12:13;3.50;99.90
14517;DHT22;7344;50.864;4.362;2022-12-11T17:14:39;3.50;99.90
14517;DHT22;7344;50.864;4.362;2022-12-11T17:17:04;3.40;99.90
14517;DHT22;7344;50.864;4.362;2022-12-11T17:19:30;3.40;99.90
14517;DHT22;7344;50.864;4.362;2022-12-11T17:21:55;3.30;99.90
14517;DHT22;7344;50.864;4.362;2022-12-11T17:24:23;3.30;99.90
14517;DHT22;7344;50.864;4.362;2022-12-11T17:26:49;3.20;99.90
14517;DHT22;7344;50.864;4.362;2022-12-11T17:29:14;3.20;99.90
14517;DHT22;7344;50.864;4.362;2022-12-11T17:31:40;3.10;99.90
14517;DHT22;7344;50.864;4.362;2022-12-11T17:34:05;3.10;99.90
14517;DHT22;7344;50.864;4.362;2022-12-11T17:36:31;2.90;99.90
14517;DHT22;7344;50.864;4.362;2022-12-11T17:38:57;2.90;99.90
14517;DHT22;7344;50.864;4.362;2022-12-11T17:41:23;2.90;99.90
14517;DHT22;7344;50.864;4.362;2022-12-11T17:43:50;2.90;99.90
14517;DHT22;7344;50.864;4.362;2022-12-11T17:46:17;2.90;99.90
14517;DHT22;7344;50.864;4.362;2022-12-11T17:48:43;2.80;99.90